createdAt,value
2023-02-07T00:00:33.709Z,11.20
2023-02-07T00:03:08.170Z,10.00
2023-02-07T00:05:42.190Z,10.80
2023-02-07T00:08:15.918Z,9.00
2023-02-07T00:10:49.490Z,10.40
2023-02-07T00:13:22.997Z,11.00
2023-02-07T00:15:57.059Z,10.30
2023-02-07T00:18:31.488Z,9.10
2023-02-07T00:21:08.198Z,10.00
2023-02-07T00:23:42.022Z,9.20
2023-02-07T00:26:16.709Z,10.40
2023-02-07T00:28:52.155Z,7.90
2023-02-07T00:31:27.776Z,8.40
2023-02-07T00:34:04.572Z,8.90
2023-02-07T00:36:38.043Z,7.20
2023-02-07T00:39:14.535Z,6.20
2023-02-07T00:41:49.044Z,6.80
2023-02-07T00:44:23.232Z,8.00
2023-02-07T00:46:57.770Z,6.20
2023-02-07T00:49:32.128Z,5.90
2023-02-07T00:52:06.149Z,4.40
2023-02-07T00:54:41.750Z,5.30
2023-02-07T00:57:15.997Z,6.10
2023-02-07T00:59:49.731Z,5.80
2023-02-07T01:02:24.815Z,6.00
2023-02-07T01:05:00.257Z,5.40
2023-02-07T01:07:33.362Z,5.60
2023-02-07T01:10:08.705Z,6.30
2023-02-07T01:12:43.050Z,4.90
2023-02-07T01:15:17.789Z,5.90
2023-02-07T01:17:52.615Z,5.20
2023-02-07T01:20:26.028Z,5.00
2023-02-07T01:23:00.759Z,5.40
2023-02-07T01:25:33.613Z,5.80
2023-02-07T01:28:07.733Z,5.40
2023-02-07T01:30:44.362Z,4.60
2023-02-07T01:33:17.383Z,5.80
2023-02-07T01:35:56.210Z,5.90
2023-02-07T01:38:29.805Z,5.80
2023-02-07T01:41:03.129Z,5.10
2023-02-07T01:43:36.936Z,6.30
2023-02-07T01:46:09.950Z,6.00
2023-02-07T01:48:44.561Z,5.60
2023-02-07T01:51:19.257Z,5.40
2023-02-07T01:53:54.955Z,4.80
2023-02-07T01:56:32.286Z,5.70
2023-02-07T01:59:12.088Z,5.20
2023-02-07T02:01:47.332Z,5.20
2023-02-07T02:04:20.821Z,4.90
2023-02-07T02:06:54.083Z,5.80
2023-02-07T02:09:30.551Z,3.20
2023-02-07T02:12:46.938Z,5.70
2023-02-07T02:15:45.905Z,5.00
2023-02-07T02:18:47.797Z,3.70
2023-02-07T02:22:11.121Z,5.10
2023-02-07T02:25:19.924Z,3.80
2023-02-07T02:28:25.526Z,4.90
2023-02-07T02:31:42.720Z,5.80
2023-02-07T02:34:27.461Z,4.50
2023-02-07T02:37:13.005Z,5.20
2023-02-07T02:39:57.406Z,4.90
2023-02-07T02:42:40.782Z,4.10
2023-02-07T02:45:25.836Z,4.40
2023-02-07T02:47:59.596Z,4.60
2023-02-07T02:50:35.259Z,4.10
2023-02-07T02:53:10.288Z,4.20
2023-02-07T02:56:35.356Z,4.50
2023-02-07T02:59:36.200Z,5.70
2023-02-07T03:02:24.683Z,5.60
2023-02-07T03:05:15.802Z,5.60
2023-02-07T03:08:02.198Z,5.00
2023-02-07T03:10:52.128Z,5.60
2023-02-07T03:13:37.579Z,5.20
2023-02-07T03:16:21.979Z,5.10
2023-02-07T03:19:05.609Z,4.30
2023-02-07T03:21:46.343Z,6.40
2023-02-07T03:24:27.549Z,5.60
2023-02-07T03:27:06.534Z,6.00
2023-02-07T03:29:43.890Z,6.50
2023-02-07T03:32:21.318Z,5.90
2023-02-07T03:35:03.044Z,5.50
2023-02-07T03:37:43.205Z,5.00
2023-02-07T03:40:19.288Z,6.00
2023-02-07T03:43:00.958Z,5.60
2023-02-07T03:45:35.324Z,6.30
2023-02-07T03:48:10.120Z,6.70
2023-02-07T03:50:44.107Z,5.90
2023-02-07T03:53:18.574Z,6.20
2023-02-07T03:55:52.739Z,7.00
2023-02-07T03:58:25.895Z,5.80
2023-02-07T04:00:59.901Z,5.80
2023-02-07T04:03:33.492Z,5.70
2023-02-07T04:06:08.419Z,6.70
2023-02-07T04:08:42.397Z,6.60
2023-02-07T04:11:16.029Z,6.00
2023-02-07T04:13:50.270Z,5.50
2023-02-07T04:16:24.217Z,6.30
2023-02-07T04:18:58.295Z,8.00
2023-02-07T04:21:33.318Z,8.10
2023-02-07T04:24:07.448Z,6.50
2023-02-07T04:26:41.678Z,6.50
2023-02-07T04:29:15.437Z,6.80
2023-02-07T04:31:49.215Z,6.80
2023-02-07T04:34:23.011Z,6.30
2023-02-07T04:36:57.379Z,5.90
2023-02-07T04:39:31.811Z,6.50
2023-02-07T04:42:05.646Z,7.10
2023-02-07T04:44:39.133Z,6.70
2023-02-07T04:47:13.088Z,6.50
2023-02-07T04:49:46.522Z,7.30
2023-02-07T04:52:20.357Z,6.60
2023-02-07T04:54:54.054Z,6.30
2023-02-07T04:57:27.634Z,5.60
2023-02-07T05:00:01.101Z,6.20
2023-02-07T05:02:33.862Z,6.30
2023-02-07T05:05:09.580Z,5.90
2023-02-07T05:07:43.357Z,5.90
2023-02-07T05:10:18.612Z,6.20
2023-02-07T05:12:52.712Z,6.30
2023-02-07T05:15:26.960Z,6.80
2023-02-07T05:18:03.633Z,5.80
2023-02-07T05:20:37.989Z,6.40
2023-02-07T05:23:11.592Z,6.90
2023-02-07T05:25:45.837Z,5.90
2023-02-07T05:28:19.447Z,6.90
2023-02-07T05:30:56.983Z,6.90
2023-02-07T05:33:29.955Z,7.10
2023-02-07T05:36:06.136Z,6.60
2023-02-07T05:38:40.251Z,6.40
2023-02-07T05:41:14.146Z,6.80
2023-02-07T05:43:48.545Z,6.10
2023-02-07T05:46:22.841Z,5.50
2023-02-07T05:48:56.639Z,6.70
2023-02-07T05:51:30.912Z,7.10
2023-02-07T05:54:04.896Z,6.30
2023-02-07T05:56:38.977Z,6.60
2023-02-07T05:59:13.060Z,6.10
2023-02-07T06:01:46.685Z,6.60
2023-02-07T06:04:18.915Z,6.50
2023-02-07T06:06:54.500Z,7.00
2023-02-07T06:09:29.224Z,6.70
2023-02-07T06:12:05.132Z,5.80
2023-02-07T06:14:38.016Z,6.20
2023-02-07T06:17:12.017Z,6.40
2023-02-07T06:19:45.687Z,6.80
2023-02-07T06:22:20.632Z,6.80
2023-02-07T06:24:53.976Z,5.80
2023-02-07T06:27:27.387Z,6.80
2023-02-07T06:30:01.187Z,7.90
2023-02-07T06:32:35.471Z,5.90
2023-02-07T06:35:12.407Z,7.30
2023-02-07T06:37:46.544Z,5.90
2023-02-07T06:40:22.316Z,6.60
2023-02-07T06:42:55.506Z,6.10
2023-02-07T06:45:30.133Z,6.70
2023-02-07T06:48:03.835Z,6.10
2023-02-07T06:50:37.255Z,7.40
2023-02-07T06:53:11.018Z,6.90
2023-02-07T06:55:45.002Z,6.30
2023-02-07T06:58:19.867Z,7.00
2023-02-07T07:00:53.868Z,6.30
2023-02-07T07:03:29.256Z,5.80
2023-02-07T07:06:03.691Z,6.50
2023-02-07T07:08:37.334Z,5.90
2023-02-07T07:11:12.415Z,5.90
2023-02-07T07:13:47.839Z,6.00
2023-02-07T07:16:22.031Z,6.10
2023-02-07T07:18:56.105Z,5.30
2023-02-07T07:21:30.175Z,4.90
2023-02-07T07:24:04.985Z,5.60
2023-02-07T07:26:48.933Z,5.60
2023-02-07T07:29:23.321Z,4.80
2023-02-07T07:31:57.013Z,5.90
2023-02-07T07:34:30.226Z,5.70
2023-02-07T07:37:04.651Z,5.60
2023-02-07T07:39:39.141Z,5.40
2023-02-07T07:42:15.925Z,6.50
2023-02-07T07:45:12.037Z,6.10
2023-02-07T07:47:45.124Z,5.00
2023-02-07T07:50:19.067Z,5.00
2023-02-07T07:52:53.247Z,5.50
2023-02-07T07:55:28.541Z,5.70
2023-02-07T07:58:01.873Z,5.10
2023-02-07T08:00:35.309Z,5.40
2023-02-07T08:03:10.585Z,5.90
2023-02-07T08:05:44.815Z,9.40
2023-02-07T08:08:18.691Z,8.60
2023-02-07T08:10:52.959Z,9.30
2023-02-07T08:13:29.548Z,10.30
2023-02-07T08:16:02.098Z,9.00
2023-02-07T08:18:36.412Z,7.90
2023-02-07T08:21:10.939Z,7.60
2023-02-07T08:23:45.359Z,6.10
2023-02-07T08:26:19.978Z,6.70
2023-02-07T08:28:54.017Z,6.50
2023-02-07T08:31:27.780Z,6.70
2023-02-07T08:34:00.864Z,7.10
2023-02-07T08:36:35.208Z,6.50
2023-02-07T08:39:09.259Z,7.00
2023-02-07T08:41:43.415Z,6.80
2023-02-07T08:44:16.922Z,7.00
2023-02-07T08:46:50.606Z,7.40
2023-02-07T08:49:23.990Z,6.90
2023-02-07T08:51:58.426Z,8.10
2023-02-07T08:54:32.698Z,6.70
2023-02-07T08:57:06.327Z,6.70
2023-02-07T08:59:40.583Z,6.60
2023-02-07T09:02:15.795Z,6.80
2023-02-07T09:04:49.016Z,7.80
2023-02-07T09:07:23.215Z,7.80
2023-02-07T09:09:58.045Z,7.30
2023-02-07T09:12:32.482Z,6.60
2023-02-07T09:15:07.527Z,8.00
2023-02-07T09:17:42.349Z,8.30
2023-02-07T09:20:18.631Z,7.20
2023-02-07T09:23:08.940Z,8.10
2023-02-07T09:25:43.802Z,9.40
2023-02-07T09:28:18.364Z,8.20
2023-02-07T09:30:53.581Z,7.80
2023-02-07T09:33:27.285Z,8.00
2023-02-07T09:36:01.593Z,8.30
2023-02-07T09:38:34.647Z,8.60
2023-02-07T09:41:29.749Z,8.40
2023-02-07T09:44:20.181Z,8.50
2023-02-07T09:47:04.805Z,7.50
2023-02-07T09:49:45.043Z,8.20
2023-02-07T09:52:27.431Z,9.30
2023-02-07T09:55:06.518Z,8.80
2023-02-07T09:57:47.369Z,8.30
2023-02-07T10:00:31.141Z,9.00
2023-02-07T10:03:15.477Z,8.80
2023-02-07T10:05:59.601Z,9.30
2023-02-07T10:08:40.887Z,9.70
2023-02-07T10:11:27.310Z,9.40
2023-02-07T10:14:37.054Z,9.20
2023-02-07T10:17:37.086Z,8.80
2023-02-07T10:20:41.310Z,9.10
2023-02-07T10:23:53.169Z,8.90
2023-02-07T10:26:37.425Z,8.50
2023-02-07T10:29:44.855Z,8.70
2023-02-07T10:32:20.984Z,8.50
2023-02-07T10:34:57.367Z,8.20
2023-02-07T10:37:36.699Z,8.10
2023-02-07T10:40:18.873Z,8.50
2023-02-07T10:43:03.186Z,7.80
2023-02-07T10:45:36.749Z,8.30
2023-02-07T10:48:19.291Z,8.30
2023-02-07T10:50:53.696Z,9.20
2023-02-07T10:53:55.039Z,8.70
2023-02-07T10:56:32.269Z,9.30
2023-02-07T10:59:07.177Z,8.70
2023-02-07T11:01:41.241Z,8.30
2023-02-07T11:04:38.751Z,8.50
2023-02-07T11:07:17.622Z,8.80
2023-02-07T11:09:50.910Z,8.50
2023-02-07T11:12:28.382Z,8.80
2023-02-07T11:15:17.898Z,7.80
2023-02-07T11:17:58.530Z,7.70
2023-02-07T11:20:38.562Z,8.10
2023-02-07T11:23:17.173Z,9.00
2023-02-07T11:25:55.280Z,8.10
2023-02-07T11:28:33.582Z,8.20
2023-02-07T11:31:11.475Z,7.70
2023-02-07T11:33:45.275Z,8.70
2023-02-07T11:36:34.575Z,8.20
2023-02-07T11:39:19.772Z,8.60
2023-02-07T11:42:02.400Z,8.60
2023-02-07T11:44:44.773Z,7.90
2023-02-07T11:47:26.589Z,8.00
2023-02-07T11:50:06.079Z,7.20
2023-02-07T11:52:50.934Z,7.70
2023-02-07T11:55:33.420Z,8.10
2023-02-07T11:58:20.330Z,7.40
2023-02-07T12:00:55.765Z,7.70
2023-02-07T12:03:34.725Z,8.50
2023-02-07T12:06:17.520Z,8.70
2023-02-07T12:08:53.033Z,8.50
2023-02-07T12:11:35.899Z,8.20
2023-02-07T12:14:20.979Z,7.80
2023-02-07T12:17:01.363Z,8.70
2023-02-07T12:19:44.789Z,8.20
2023-02-07T12:22:26.113Z,9.50
2023-02-07T12:25:08.912Z,8.60
2023-02-07T12:27:49.798Z,8.10
2023-02-07T12:30:33.021Z,8.80
2023-02-07T12:33:20.664Z,7.40
2023-02-07T12:36:06.374Z,7.50
2023-02-07T12:38:49.698Z,7.80
2023-02-07T12:41:36.013Z,7.70
2023-02-07T12:44:23.083Z,7.80
2023-02-07T12:47:07.280Z,8.20
2023-02-07T12:50:11.663Z,7.60
2023-02-07T12:53:02.498Z,7.90
2023-02-07T12:55:52.740Z,8.50
2023-02-07T12:58:45.467Z,7.30
2023-02-07T13:01:30.983Z,8.40
2023-02-07T13:04:58.251Z,7.00
2023-02-07T13:07:53.489Z,8.00
2023-02-07T13:10:38.706Z,7.30
2023-02-07T13:13:22.870Z,7.60
2023-02-07T13:16:06.408Z,7.70
2023-02-07T13:18:54.217Z,8.50
2023-02-07T13:21:40.947Z,7.60
2023-02-07T13:24:21.450Z,8.20
2023-02-07T13:27:03.227Z,8.60
2023-02-07T13:29:38.931Z,8.30
2023-02-07T13:32:19.975Z,8.30
2023-02-07T13:35:03.941Z,8.80
2023-02-07T13:37:50.152Z,8.60
2023-02-07T13:40:38.563Z,8.30
2023-02-07T13:43:20.211Z,8.40
2023-02-07T13:46:08.568Z,8.80
2023-02-07T13:48:51.921Z,8.80
2023-02-07T13:51:35.590Z,8.00
2023-02-07T13:54:32.264Z,8.60
2023-02-07T13:57:39.459Z,7.60
2023-02-07T14:00:20.374Z,8.20
2023-02-07T14:02:57.480Z,8.70
2023-02-07T14:05:36.561Z,8.30
2023-02-07T14:08:24.600Z,9.10
2023-02-07T14:11:12.941Z,8.30
2023-02-07T14:13:47.456Z,8.30
2023-02-07T14:16:53.466Z,8.40
2023-02-07T14:19:56.138Z,7.60
2023-02-07T14:22:32.581Z,7.40
2023-02-07T14:25:39.122Z,8.00
2023-02-07T14:28:37.058Z,8.00
2023-02-07T14:31:31.659Z,8.00
2023-02-07T14:34:20.404Z,7.80
2023-02-07T14:36:56.400Z,8.40
2023-02-07T14:39:37.165Z,8.00
2023-02-07T14:42:22.742Z,9.00
2023-02-07T14:45:02.829Z,9.40
2023-02-07T14:47:38.459Z,7.20
2023-02-07T14:50:18.598Z,9.20
2023-02-07T14:52:53.266Z,9.20
2023-02-07T14:55:39.359Z,9.00
2023-02-07T14:58:28.130Z,8.30
2023-02-07T15:01:03.855Z,8.80
2023-02-07T15:03:38.361Z,9.10
2023-02-07T15:06:31.997Z,8.40
2023-02-07T15:09:07.629Z,9.00
2023-02-07T15:11:41.944Z,8.30
2023-02-07T15:14:31.970Z,8.50
2023-02-07T15:17:07.148Z,8.40
2023-02-07T15:19:44.332Z,7.90
2023-02-07T15:22:30.081Z,8.10
2023-02-07T15:25:05.815Z,8.90
2023-02-07T15:27:40.611Z,8.30
2023-02-07T15:30:22.115Z,7.40
2023-02-07T15:32:55.927Z,9.30
2023-02-07T15:35:38.904Z,9.00
2023-02-07T15:38:25.796Z,7.80
2023-02-07T15:40:59.913Z,7.10
2023-02-07T15:43:35.762Z,8.10
2023-02-07T15:46:13.819Z,8.00
2023-02-07T15:48:55.608Z,8.60
2023-02-07T15:51:34.125Z,9.50
2023-02-07T15:54:08.438Z,9.20
2023-02-07T15:56:45.962Z,7.90
2023-02-07T15:59:25.969Z,8.00
2023-02-07T16:02:02.855Z,8.10
2023-02-07T16:04:37.748Z,8.00
2023-02-07T16:07:16.910Z,7.60
2023-02-07T16:09:53.602Z,7.40
2023-02-07T16:12:51.113Z,7.90
2023-02-07T16:15:32.721Z,8.70
2023-02-07T16:18:08.117Z,8.90
2023-02-07T16:20:44.921Z,8.10
2023-02-07T16:23:18.675Z,8.50
2023-02-07T16:25:52.067Z,8.00
2023-02-07T16:28:25.832Z,9.00
2023-02-07T16:31:00.234Z,8.60
2023-02-07T16:33:39.911Z,8.90
2023-02-07T16:36:19.171Z,9.30
2023-02-07T16:38:54.161Z,11.90
2023-02-07T16:41:32.894Z,13.10
2023-02-07T16:44:14.535Z,14.60
2023-02-07T16:46:48.290Z,12.10
2023-02-07T16:49:24.320Z,12.90
2023-02-07T16:51:57.966Z,13.50
2023-02-07T16:54:31.258Z,12.70
2023-02-07T16:57:05.472Z,12.20
2023-02-07T16:59:39.838Z,9.80
2023-02-07T17:02:17.615Z,9.90
2023-02-07T17:04:52.725Z,10.30
2023-02-07T17:07:26.421Z,11.60
2023-02-07T17:10:01.027Z,13.40
2023-02-07T17:12:34.353Z,14.30
2023-02-07T17:15:09.519Z,13.80
2023-02-07T17:17:44.530Z,12.60
2023-02-07T17:20:27.946Z,14.70
2023-02-07T17:23:01.907Z,14.90
2023-02-07T17:25:36.202Z,19.70
2023-02-07T17:28:14.425Z,18.40
2023-02-07T17:30:48.766Z,13.70
2023-02-07T17:33:22.248Z,13.40
2023-02-07T17:35:56.002Z,11.50
2023-02-07T17:38:29.386Z,12.70
2023-02-07T17:41:02.732Z,11.50
2023-02-07T17:43:39.247Z,11.30
2023-02-07T17:46:19.952Z,12.30
2023-02-07T17:48:53.559Z,11.20
2023-02-07T17:51:28.687Z,12.10
2023-02-07T17:54:02.191Z,12.20
2023-02-07T17:56:36.579Z,11.50
2023-02-07T17:59:18.984Z,10.10
2023-02-07T18:01:53.598Z,13.80
2023-02-07T18:04:27.954Z,10.90
2023-02-07T18:07:00.549Z,12.10
2023-02-07T18:09:33.809Z,12.10
2023-02-07T18:12:08.236Z,12.30
2023-02-07T18:14:42.327Z,13.10
2023-02-07T18:17:16.797Z,10.90
2023-02-07T18:19:51.632Z,12.30
2023-02-07T18:22:25.220Z,12.00
2023-02-07T18:25:00.579Z,12.60
2023-02-07T18:27:35.570Z,12.50
2023-02-07T18:30:14.392Z,13.10
2023-02-07T18:32:48.027Z,11.90
2023-02-07T18:35:22.410Z,11.30
2023-02-07T18:37:56.030Z,9.90
2023-02-07T18:40:30.736Z,11.30
2023-02-07T18:43:05.146Z,11.00
2023-02-07T18:45:40.969Z,12.00
2023-02-07T18:48:16.131Z,11.50
2023-02-07T18:50:49.990Z,12.30
2023-02-07T18:53:23.155Z,11.20
2023-02-07T18:55:56.810Z,11.90
2023-02-07T18:58:32.007Z,12.30
2023-02-07T19:01:10.174Z,12.60
2023-02-07T19:03:45.166Z,12.60
2023-02-07T19:06:19.528Z,12.30
2023-02-07T19:08:53.627Z,11.90
2023-02-07T19:11:26.133Z,12.50
2023-02-07T19:13:59.600Z,11.00
2023-02-07T19:16:33.838Z,11.60
2023-02-07T19:19:07.903Z,11.20
2023-02-07T19:21:43.822Z,10.80
2023-02-07T19:24:20.052Z,12.70
2023-02-07T19:26:56.195Z,12.40
2023-02-07T19:29:31.620Z,13.50
2023-02-07T19:32:07.931Z,14.50
2023-02-07T19:34:42.233Z,12.90
2023-02-07T19:37:16.137Z,13.70
2023-02-07T19:39:53.387Z,13.40
2023-02-07T19:42:30.871Z,12.50
2023-02-07T19:45:04.664Z,12.50
2023-02-07T19:47:38.144Z,12.70
2023-02-07T19:50:15.854Z,12.50
2023-02-07T19:52:49.620Z,12.70
2023-02-07T19:55:23.931Z,13.10
2023-02-07T19:57:59.544Z,13.70
2023-02-07T20:00:32.655Z,13.10
2023-02-07T20:03:07.155Z,13.80
2023-02-07T20:05:46.648Z,14.40
2023-02-07T20:08:20.172Z,14.20
2023-02-07T20:10:53.741Z,13.30
2023-02-07T20:13:28.516Z,10.80
2023-02-07T20:16:03.437Z,13.30
2023-02-07T20:18:36.411Z,12.80
2023-02-07T20:21:14.413Z,13.10
2023-02-07T20:23:50.383Z,10.90
2023-02-07T20:26:26.423Z,11.70
2023-02-07T20:29:01.756Z,12.70
2023-02-07T20:31:34.372Z,11.60
2023-02-07T20:34:08.200Z,11.20
2023-02-07T20:36:41.911Z,10.90
2023-02-07T20:39:19.542Z,11.70
2023-02-07T20:41:53.149Z,12.80
2023-02-07T20:44:27.521Z,11.80
2023-02-07T20:47:03.253Z,11.40
2023-02-07T20:49:36.792Z,11.50
2023-02-07T20:52:11.988Z,11.80
2023-02-07T20:54:45.548Z,12.60
2023-02-07T20:57:19.626Z,12.30
2023-02-07T20:59:54.926Z,12.30
2023-02-07T21:02:29.201Z,11.00
2023-02-07T21:05:03.075Z,11.70
2023-02-07T21:07:36.593Z,11.00
2023-02-07T21:10:12.759Z,13.40
2023-02-07T21:12:46.695Z,12.50
2023-02-07T21:15:20.822Z,11.20
2023-02-07T21:17:55.872Z,11.20
2023-02-07T21:20:29.686Z,11.30
2023-02-07T21:23:03.992Z,11.40
2023-02-07T21:25:38.170Z,11.00
2023-02-07T21:28:12.298Z,12.00
2023-02-07T21:30:46.339Z,12.20
2023-02-07T21:33:19.892Z,15.00
2023-02-07T21:35:53.756Z,12.60
2023-02-07T21:38:28.608Z,14.00
2023-02-07T21:41:01.968Z,11.60
2023-02-07T21:43:35.571Z,10.60
2023-02-07T21:46:11.800Z,11.60
2023-02-07T21:48:45.445Z,12.40
2023-02-07T21:53:59.038Z,11.90
2023-02-07T21:56:36.240Z,14.50
2023-02-07T21:59:15.028Z,13.20
2023-02-07T22:01:49.171Z,13.10
2023-02-07T22:04:24.615Z,12.20
2023-02-07T22:06:58.855Z,11.00
2023-02-07T22:09:35.643Z,11.30
2023-02-07T22:12:12.391Z,12.80
2023-02-07T22:14:46.972Z,12.10
2023-02-07T22:17:21.396Z,11.30
2023-02-07T22:19:56.096Z,10.80
2023-02-07T22:22:33.379Z,9.90
2023-02-07T22:25:08.429Z,11.60
2023-02-07T22:27:41.908Z,9.70
2023-02-07T22:30:21.050Z,9.00
2023-02-07T22:32:54.617Z,11.10
2023-02-07T22:35:29.222Z,10.10
2023-02-07T22:38:03.199Z,10.90
2023-02-07T22:40:39.617Z,11.10
2023-02-07T22:43:18.396Z,10.80
2023-02-07T22:45:52.313Z,10.10
2023-02-07T22:48:25.694Z,9.80
2023-02-07T22:50:59.069Z,10.40
2023-02-07T22:53:33.581Z,9.30
2023-02-07T22:56:13.805Z,8.90
2023-02-07T22:58:47.266Z,7.00
2023-02-07T23:01:26.348Z,6.80
2023-02-07T23:04:00.331Z,8.60
2023-02-07T23:06:34.584Z,9.20
2023-02-07T23:09:07.404Z,8.10
2023-02-07T23:11:41.532Z,7.50
2023-02-07T23:14:14.984Z,8.80
2023-02-07T23:16:49.167Z,13.20
2023-02-07T23:19:23.534Z,14.60
2023-02-07T23:21:59.851Z,15.20
2023-02-07T23:24:33.739Z,14.10
2023-02-07T23:27:07.701Z,11.30
2023-02-07T23:29:41.336Z,11.50
2023-02-07T23:32:16.143Z,10.00
2023-02-07T23:34:50.411Z,9.90
2023-02-07T23:37:25.302Z,9.60
2023-02-07T23:39:59.096Z,6.30
2023-02-07T23:42:32.552Z,5.90
2023-02-07T23:45:08.579Z,5.60
2023-02-07T23:47:42.690Z,5.90
2023-02-07T23:50:18.176Z,5.50
2023-02-07T23:52:56.391Z,5.00
2023-02-07T23:55:30.825Z,4.90
